sensor_id;sensor_type;location;lat;lon;timestamp;pressure;altitude;pressure_sealevel;temperature;humidity
43217;BME280;60511;42.686;23.300;2023-03-21T00:01:24;94455.97;;;23.21;27.41
43217;BME280;60511;42.686;23.300;2023-03-21T00:03:25;94511.34;;;23.51;27.05
43217;BME280;60511;42.686;23.300;2023-03-21T00:05:25;94548.00;;;23.71;27.10
43217;BME280;60511;42.686;23.300;2023-03-21T00:07:26;94552.72;;;23.74;27.37
43217;BME280;60511;42.686;23.300;2023-03-21T00:09:27;94536.78;;;23.69;27.07
43217;BME280;60511;42.686;23.300;2023-03-21T00:11:27;94557.63;;;23.88;27.18
43217;BME280;60511;42.686;23.300;2023-03-21T00:13:28;94573.06;;;23.88;27.19
43217;BME280;60511;42.686;23.300;2023-03-21T00:15:32;94534.59;;;23.75;27.04
43217;BME280;60511;42.686;23.300;2023-03-21T00:17:32;94504.09;;;23.55;26.98
43217;BME280;60511;42.686;23.300;2023-03-21T00:19:33;94514.25;;;23.61;26.87
43217;BME280;60511;42.686;23.300;2023-03-21T00:21:37;94498.91;;;23.46;27.28
43217;BME280;60511;42.686;23.300;2023-03-21T00:23:37;94509.47;;;23.55;27.22
43217;BME280;60511;42.686;23.300;2023-03-21T00:25:38;94496.69;;;23.32;27.17
43217;BME280;60511;42.686;23.300;2023-03-21T00:27:38;94514.31;;;23.45;27.46
43217;BME280;60511;42.686;23.300;2023-03-21T00:29:38;94554.06;;;23.64;27.49
43217;BME280;60511;42.686;23.300;2023-03-21T00:31:48;94436.09;;;22.94;27.20
43217;BME280;60511;42.686;23.300;2023-03-21T00:33:48;94553.34;;;23.67;27.39
43217;BME280;60511;42.686;23.300;2023-03-21T00:35:50;94553.56;;;23.59;27.40
43217;BME280;60511;42.686;23.300;2023-03-21T00:37:51;94469.97;;;22.92;27.31
43217;BME280;60511;42.686;23.300;2023-03-21T00:39:51;94518.63;;;23.11;26.73
43217;BME280;60511;42.686;23.300;2023-03-21T00:41:52;94532.56;;;23.13;27.00
43217;BME280;60511;42.686;23.300;2023-03-21T00:43:53;94520.47;;;23.07;26.75
43217;BME280;60511;42.686;23.300;2023-03-21T00:45:56;94526.91;;;23.02;26.76
43217;BME280;60511;42.686;23.300;2023-03-21T00:47:57;94524.28;;;23.06;26.94
43217;BME280;60511;42.686;23.300;2023-03-21T00:49:57;94488.97;;;22.79;26.49
43217;BME280;60511;42.686;23.300;2023-03-21T00:51:59;94558.28;;;23.26;26.66
43217;BME280;60511;42.686;23.300;2023-03-21T00:53:59;94545.84;;;23.22;26.90
43217;BME280;60511;42.686;23.300;2023-03-21T00:56:00;94554.50;;;23.12;26.96
43217;BME280;60511;42.686;23.300;2023-03-21T00:58:00;94556.00;;;23.09;26.64
43217;BME280;60511;42.686;23.300;2023-03-21T01:00:00;94499.50;;;22.84;26.48
43217;BME280;60511;42.686;23.300;2023-03-21T01:02:01;94547.91;;;23.09;26.49
43217;BME280;60511;42.686;23.300;2023-03-21T01:04:06;94520.56;;;22.95;26.28
43217;BME280;60511;42.686;23.300;2023-03-21T01:06:12;94526.66;;;22.92;26.32
43217;BME280;60511;42.686;23.300;2023-03-21T01:08:15;94544.47;;;23.12;25.95
43217;BME280;60511;42.686;23.300;2023-03-21T01:10:16;94510.66;;;22.83;26.33
43217;BME280;60511;42.686;23.300;2023-03-21T01:12:16;94533.59;;;23.09;26.03
43217;BME280;60511;42.686;23.300;2023-03-21T01:14:19;94561.03;;;23.11;25.74
43217;BME280;60511;42.686;23.300;2023-03-21T01:16:19;94540.56;;;23.10;25.82
43217;BME280;60511;42.686;23.300;2023-03-21T01:18:24;94542.84;;;23.08;25.75
43217;BME280;60511;42.686;23.300;2023-03-21T01:20:26;94407.06;;;22.20;26.18
43217;BME280;60511;42.686;23.300;2023-03-21T01:22:26;94477.53;;;22.66;25.24
43217;BME280;60511;42.686;23.300;2023-03-21T01:24:27;94464.66;;;22.60;25.85
43217;BME280;60511;42.686;23.300;2023-03-21T01:26:27;94487.97;;;22.68;25.78
43217;BME280;60511;42.686;23.300;2023-03-21T01:28:29;94500.19;;;22.81;25.77
43217;BME280;60511;42.686;23.300;2023-03-21T01:30:29;94487.16;;;22.67;25.63
43217;BME280;60511;42.686;23.300;2023-03-21T01:32:30;94484.84;;;22.66;26.21
43217;BME280;60511;42.686;23.300;2023-03-21T01:34:30;94556.59;;;23.02;25.84
43217;BME280;60511;42.686;23.300;2023-03-21T01:36:31;94475.63;;;22.51;26.08
43217;BME280;60511;42.686;23.300;2023-03-21T01:38:32;94524.06;;;22.79;26.13
43217;BME280;60511;42.686;23.300;2023-03-21T01:40:32;94506.75;;;22.64;25.96
43217;BME280;60511;42.686;23.300;2023-03-21T01:42:32;94536.31;;;22.93;26.16
43217;BME280;60511;42.686;23.300;2023-03-21T01:44:51;94482.50;;;22.49;26.16
43217;BME280;60511;42.686;23.300;2023-03-21T01:46:52;94545.88;;;22.90;26.18
43217;BME280;60511;42.686;23.300;2023-03-21T01:48:56;94469.38;;;22.31;26.17
43217;BME280;60511;42.686;23.300;2023-03-21T01:50:58;94530.16;;;22.76;26.15
43217;BME280;60511;42.686;23.300;2023-03-21T01:52:59;94392.69;;;21.97;26.23
43217;BME280;60511;42.686;23.300;2023-03-21T01:55:02;94537.78;;;22.90;26.21
43217;BME280;60511;42.686;23.300;2023-03-21T01:57:05;94526.22;;;22.90;26.31
43217;BME280;60511;42.686;23.300;2023-03-21T01:59:13;94533.78;;;22.84;26.40
43217;BME280;60511;42.686;23.300;2023-03-21T02:01:17;94496.75;;;22.49;26.33
43217;BME280;60511;42.686;23.300;2023-03-21T02:03:22;94422.28;;;22.13;26.28
43217;BME280;60511;42.686;23.300;2023-03-21T02:05:59;94415.34;;;22.12;26.10
43217;BME280;60511;42.686;23.300;2023-03-21T02:07:59;94518.75;;;22.67;26.77
43217;BME280;60511;42.686;23.300;2023-03-21T02:10:02;94482.78;;;22.43;26.22
43217;BME280;60511;42.686;23.300;2023-03-21T02:12:04;94496.16;;;22.56;26.55
43217;BME280;60511;42.686;23.300;2023-03-21T02:14:12;94532.94;;;22.80;26.21
43217;BME280;60511;42.686;23.300;2023-03-21T02:16:17;94513.69;;;22.81;26.45
43217;BME280;60511;42.686;23.300;2023-03-21T02:27:18;94512.50;;;22.63;27.14
43217;BME280;60511;42.686;23.300;2023-03-21T02:36:25;94497.28;;;22.55;27.03
43217;BME280;60511;42.686;23.300;2023-03-21T02:40:52;94485.28;;;22.52;26.51
43217;BME280;60511;42.686;23.300;2023-03-21T02:43:12;94523.19;;;22.75;26.48
43217;BME280;60511;42.686;23.300;2023-03-21T02:45:30;94522.06;;;22.76;26.33
43217;BME280;60511;42.686;23.300;2023-03-21T02:47:38;94513.03;;;22.69;26.20
43217;BME280;60511;42.686;23.300;2023-03-21T02:51:49;94401.25;;;22.02;26.22
43217;BME280;60511;42.686;23.300;2023-03-21T02:53:54;94523.28;;;22.63;26.32
43217;BME280;60511;42.686;23.300;2023-03-21T02:55:58;94485.19;;;22.33;26.25
43217;BME280;60511;42.686;23.300;2023-03-21T02:58:00;94514.00;;;22.60;26.01
43217;BME280;60511;42.686;23.300;2023-03-21T03:00:01;94442.22;;;22.08;25.84
43217;BME280;60511;42.686;23.300;2023-03-21T03:02:07;94462.47;;;22.18;25.96
43217;BME280;60511;42.686;23.300;2023-03-21T03:04:25;94480.00;;;22.40;26.22
43217;BME280;60511;42.686;23.300;2023-03-21T03:06:38;94511.72;;;22.62;26.25
43217;BME280;60511;42.686;23.300;2023-03-21T03:09:18;94515.91;;;22.60;26.00
43217;BME280;60511;42.686;23.300;2023-03-21T03:13:34;94505.63;;;22.65;25.83
43217;BME280;60511;42.686;23.300;2023-03-21T03:15:50;94328.63;;;21.42;25.91
43217;BME280;60511;42.686;23.300;2023-03-21T03:17:59;94524.25;;;22.55;26.15
43217;BME280;60511;42.686;23.300;2023-03-21T03:20:32;94512.50;;;22.63;26.24
43217;BME280;60511;42.686;23.300;2023-03-21T03:25:08;94342.34;;;21.53;25.88
43217;BME280;60511;42.686;23.300;2023-03-21T03:27:15;94470.75;;;22.25;26.28
43217;BME280;60511;42.686;23.300;2023-03-21T03:29:18;94525.66;;;22.49;26.18
43217;BME280;60511;42.686;23.300;2023-03-21T03:31:23;94520.16;;;22.61;25.92
43217;BME280;60511;42.686;23.300;2023-03-21T03:33:26;94487.66;;;22.38;26.13
43217;BME280;60511;42.686;23.300;2023-03-21T03:35:28;94517.91;;;22.63;26.32
43217;BME280;60511;42.686;23.300;2023-03-21T03:37:32;94483.31;;;22.33;26.15
43217;BME280;60511;42.686;23.300;2023-03-21T03:39:37;94504.69;;;22.42;26.24
43217;BME280;60511;42.686;23.300;2023-03-21T03:42:00;94511.53;;;22.55;26.41
43217;BME280;60511;42.686;23.300;2023-03-21T03:44:03;94518.94;;;22.58;26.51
43217;BME280;60511;42.686;23.300;2023-03-21T03:46:12;94529.75;;;22.58;26.42
43217;BME280;60511;42.686;23.300;2023-03-21T03:48:20;94508.06;;;22.55;26.46
43217;BME280;60511;42.686;23.300;2023-03-21T03:52:33;94442.13;;;22.04;26.40
43217;BME280;60511;42.686;23.300;2023-03-21T03:54:38;94389.72;;;21.70;26.71
43217;BME280;60511;42.686;23.300;2023-03-21T03:56:41;94469.28;;;22.27;26.34
43217;BME280;60511;42.686;23.300;2023-03-21T03:58:41;94479.66;;;22.25;26.41
43217;BME280;60511;42.686;23.300;2023-03-21T04:00:42;94472.34;;;22.26;26.47
43217;BME280;60511;42.686;23.300;2023-03-21T04:02:42;94460.41;;;22.11;26.25
43217;BME280;60511;42.686;23.300;2023-03-21T04:04:44;94493.63;;;22.31;26.24
43217;BME280;60511;42.686;23.300;2023-03-21T04:06:44;94499.72;;;22.44;26.29
43217;BME280;60511;42.686;23.300;2023-03-21T04:08:50;94461.72;;;22.17;26.59
43217;BME280;60511;42.686;23.300;2023-03-21T04:10:51;94497.66;;;22.37;26.33
43217;BME280;60511;42.686;23.300;2023-03-21T04:12:51;94492.50;;;22.32;26.60
43217;BME280;60511;42.686;23.300;2023-03-21T04:14:52;94454.81;;;22.04;26.33
43217;BME280;60511;42.686;23.300;2023-03-21T04:16:52;94531.47;;;22.51;26.09
43217;BME280;60511;42.686;23.300;2023-03-21T04:18:53;94521.41;;;22.48;26.25
43217;BME280;60511;42.686;23.300;2023-03-21T04:20:54;94420.91;;;21.87;26.39
43217;BME280;60511;42.686;23.300;2023-03-21T04:22:54;94527.91;;;22.46;26.11
43217;BME280;60511;42.686;23.300;2023-03-21T04:24:55;94509.31;;;22.41;26.02
43217;BME280;60511;42.686;23.300;2023-03-21T04:26:56;94426.84;;;21.93;26.40
43217;BME280;60511;42.686;23.300;2023-03-21T04:28:56;94452.47;;;22.18;26.17
43217;BME280;60511;42.686;23.300;2023-03-21T04:30:59;94495.31;;;22.36;25.86
43217;BME280;60511;42.686;23.300;2023-03-21T04:32:59;94431.78;;;22.06;25.88
43217;BME280;60511;42.686;23.300;2023-03-21T04:35:00;94480.50;;;22.30;25.98
43217;BME280;60511;42.686;23.300;2023-03-21T04:37:00;94467.34;;;22.12;26.22
43217;BME280;60511;42.686;23.300;2023-03-21T04:39:10;94531.38;;;22.47;26.48
43217;BME280;60511;42.686;23.300;2023-03-21T04:41:13;94347.69;;;21.37;25.96
43217;BME280;60511;42.686;23.300;2023-03-21T04:43:14;94410.38;;;21.82;26.87
43217;BME280;60511;42.686;23.300;2023-03-21T04:45:15;94464.75;;;22.16;25.97
43217;BME280;60511;42.686;23.300;2023-03-21T04:47:16;94509.56;;;22.52;25.85
43217;BME280;60511;42.686;23.300;2023-03-21T04:49:19;94513.66;;;22.46;25.91
43217;BME280;60511;42.686;23.300;2023-03-21T04:51:20;94479.28;;;22.27;26.11
43217;BME280;60511;42.686;23.300;2023-03-21T04:53:20;94443.78;;;21.93;25.98
43217;BME280;60511;42.686;23.300;2023-03-21T04:55:21;94523.13;;;22.40;25.81
43217;BME280;60511;42.686;23.300;2023-03-21T04:57:21;94361.03;;;21.46;25.52
43217;BME280;60511;42.686;23.300;2023-03-21T04:59:22;94469.00;;;22.17;25.67
43217;BME280;60511;42.686;23.300;2023-03-21T05:01:22;94471.25;;;22.15;25.86
43217;BME280;60511;42.686;23.300;2023-03-21T05:03:23;94487.50;;;22.18;25.92
43217;BME280;60511;42.686;23.300;2023-03-21T05:05:24;94523.13;;;22.40;25.84
43217;BME280;60511;42.686;23.300;2023-03-21T05:07:24;94538.16;;;22.41;25.66
43217;BME280;60511;42.686;23.300;2023-03-21T05:09:25;94496.75;;;22.17;25.76
43217;BME280;60511;42.686;23.300;2023-03-21T05:11:27;94524.25;;;22.39;25.71
43217;BME280;60511;42.686;23.300;2023-03-21T05:13:29;94461.69;;;22.01;26.18
43217;BME280;60511;42.686;23.300;2023-03-21T05:15:30;94504.31;;;22.12;25.79
43217;BME280;60511;42.686;23.300;2023-03-21T05:17:30;94523.03;;;22.36;25.90
43217;BME280;60511;42.686;23.300;2023-03-21T05:19:31;94527.75;;;22.39;25.94
43217;BME280;60511;42.686;23.300;2023-03-21T05:21:34;94457.25;;;21.93;26.16
43217;BME280;60511;42.686;23.300;2023-03-21T05:23:40;94537.81;;;22.42;25.72
43217;BME280;60511;42.686;23.300;2023-03-21T05:25:41;94493.19;;;22.13;26.58
43217;BME280;60511;42.686;23.300;2023-03-21T05:27:41;94486.66;;;22.14;26.36
43217;BME280;60511;42.686;23.300;2023-03-21T05:29:44;94491.78;;;22.19;26.37
43217;BME280;60511;42.686;23.300;2023-03-21T05:31:45;94476.19;;;22.13;26.33
43217;BME280;60511;42.686;23.300;2023-03-21T05:33:45;94484.81;;;22.18;25.89
43217;BME280;60511;42.686;23.300;2023-03-21T05:35:49;94539.03;;;22.45;26.16
43217;BME280;60511;42.686;23.300;2023-03-21T05:37:50;94389.44;;;21.59;26.12
43217;BME280;60511;42.686;23.300;2023-03-21T05:39:51;94533.59;;;22.41;26.42
43217;BME280;60511;42.686;23.300;2023-03-21T05:41:51;94498.19;;;22.15;26.14
43217;BME280;60511;42.686;23.300;2023-03-21T05:43:52;94537.41;;;22.40;26.48
43217;BME280;60511;42.686;23.300;2023-03-21T05:45:52;94505.72;;;22.21;26.69
43217;BME280;60511;42.686;23.300;2023-03-21T05:47:52;94529.41;;;22.44;26.21
43217;BME280;60511;42.686;23.300;2023-03-21T05:49:53;94485.97;;;22.17;26.59
43217;BME280;60511;42.686;23.300;2023-03-21T05:51:53;94521.03;;;22.49;26.20
43217;BME280;60511;42.686;23.300;2023-03-21T05:53:54;94480.19;;;22.19;26.92
43217;BME280;60511;42.686;23.300;2023-03-21T05:55:54;94517.13;;;22.46;26.09
43217;BME280;60511;42.686;23.300;2023-03-21T05:57:54;94446.41;;;22.05;26.41
43217;BME280;60511;42.686;23.300;2023-03-21T05:59:55;94499.13;;;22.35;25.96
43217;BME280;60511;42.686;23.300;2023-03-21T06:01:55;94514.53;;;22.50;26.54
43217;BME280;60511;42.686;23.300;2023-03-21T06:03:56;94493.81;;;22.38;26.08
43217;BME280;60511;42.686;23.300;2023-03-21T06:05:56;94513.03;;;22.53;25.91
43217;BME280;60511;42.686;23.300;2023-03-21T06:07:58;94458.56;;;22.15;26.01
43217;BME280;60511;42.686;23.300;2023-03-21T06:09:58;94477.00;;;22.29;26.59
43217;BME280;60511;42.686;23.300;2023-03-21T06:11:58;94446.41;;;22.05;26.38
43217;BME280;60511;42.686;23.300;2023-03-21T06:13:59;94508.16;;;22.58;26.13
43217;BME280;60511;42.686;23.300;2023-03-21T06:15:59;94463.47;;;22.41;26.18
43217;BME280;60511;42.686;23.300;2023-03-21T06:18:00;94505.47;;;22.58;25.98
43217;BME280;60511;42.686;23.300;2023-03-21T06:20:01;94495.78;;;22.57;26.57
43217;BME280;60511;42.686;23.300;2023-03-21T06:22:04;94499.97;;;22.55;26.50
43217;BME280;60511;42.686;23.300;2023-03-21T06:24:05;94498.06;;;22.55;26.22
43217;BME280;60511;42.686;23.300;2023-03-21T06:26:06;94490.78;;;22.56;26.15
43217;BME280;60511;42.686;23.300;2023-03-21T06:28:09;94417.44;;;22.02;26.34
43217;BME280;60511;42.686;23.300;2023-03-21T06:30:10;94415.69;;;22.10;27.12
43217;BME280;60511;42.686;23.300;2023-03-21T06:32:11;94401.88;;;21.96;26.62
43217;BME280;60511;42.686;23.300;2023-03-21T06:34:12;94358.94;;;21.71;26.46
43217;BME280;60511;42.686;23.300;2023-03-21T06:36:14;94499.97;;;22.55;26.43
43217;BME280;60511;42.686;23.300;2023-03-21T06:38:14;94510.84;;;22.58;26.09
43217;BME280;60511;42.686;23.300;2023-03-21T06:40:16;94485.97;;;22.49;26.38
43217;BME280;60511;42.686;23.300;2023-03-21T06:42:16;94445.09;;;22.15;26.29
43217;BME280;60511;42.686;23.300;2023-03-21T06:44:17;94481.19;;;22.42;26.34
43217;BME280;60511;42.686;23.300;2023-03-21T06:46:17;94467.56;;;22.35;26.34
43217;BME280;60511;42.686;23.300;2023-03-21T06:48:17;94350.94;;;21.59;25.92
43217;BME280;60511;42.686;23.300;2023-03-21T06:50:18;94452.31;;;22.27;26.41
43217;BME280;60511;42.686;23.300;2023-03-21T06:52:18;94314.25;;;21.38;26.23
43217;BME280;60511;42.686;23.300;2023-03-21T06:54:19;94507.09;;;22.63;26.21
43217;BME280;60511;42.686;23.300;2023-03-21T06:56:19;94518.50;;;22.56;26.21
43217;BME280;60511;42.686;23.300;2023-03-21T06:58:20;94511.63;;;22.59;25.98
43217;BME280;60511;42.686;23.300;2023-03-21T07:00:22;94482.94;;;22.35;26.27
43217;BME280;60511;42.686;23.300;2023-03-21T07:02:23;94486.06;;;22.37;26.17
43217;BME280;60511;42.686;23.300;2023-03-21T07:04:23;94396.47;;;21.80;26.04
43217;BME280;60511;42.686;23.300;2023-03-21T07:06:24;94484.59;;;22.39;26.35
43217;BME280;60511;42.686;23.300;2023-03-21T07:08:25;94390.94;;;21.73;25.95
43217;BME280;60511;42.686;23.300;2023-03-21T07:10:26;94373.91;;;21.69;27.00
43217;BME280;60511;42.686;23.300;2023-03-21T07:12:27;94395.72;;;21.79;26.50
43217;BME280;60511;42.686;23.300;2023-03-21T07:14:27;94434.03;;;22.04;26.44
43217;BME280;60511;42.686;23.300;2023-03-21T07:16:29;94517.81;;;22.59;26.64
43217;BME280;60511;42.686;23.300;2023-03-21T07:18:30;94520.16;;;22.61;26.93
43217;BME280;60511;42.686;23.300;2023-03-21T07:20:30;94464.03;;;22.19;26.51
43217;BME280;60511;42.686;23.300;2023-03-21T07:22:31;94536.00;;;22.62;26.48
43217;BME280;60511;42.686;23.300;2023-03-21T07:24:31;94262.69;;;20.76;26.37
43217;BME280;60511;42.686;23.300;2023-03-21T07:26:33;94330.91;;;21.28;27.44
43217;BME280;60511;42.686;23.300;2023-03-21T07:28:35;94019.63;;;19.33;26.86
43217;BME280;60511;42.686;23.300;2023-03-21T07:30:35;94094.22;;;19.80;27.37
43217;BME280;60511;42.686;23.300;2023-03-21T07:32:36;94134.69;;;20.15;29.22
43217;BME280;60511;42.686;23.300;2023-03-21T07:34:37;94369.28;;;21.53;28.75
43217;BME280;60511;42.686;23.300;2023-03-21T07:36:45;94292.63;;;21.19;29.35
43217;BME280;60511;42.686;23.300;2023-03-21T07:38:46;94319.47;;;21.31;28.59
43217;BME280;60511;42.686;23.300;2023-03-21T07:40:47;94426.31;;;22.03;30.49
43217;BME280;60511;42.686;23.300;2023-03-21T07:42:48;94521.81;;;22.65;31.60
43217;BME280;60511;42.686;23.300;2023-03-21T07:44:52;94471.47;;;22.38;32.57
43217;BME280;60511;42.686;23.300;2023-03-21T07:46:54;94511.97;;;22.57;31.16
43217;BME280;60511;42.686;23.300;2023-03-21T07:48:54;94524.59;;;22.69;30.54
43217;BME280;60511;42.686;23.300;2023-03-21T07:50:57;94339.47;;;21.46;30.35
43217;BME280;60511;42.686;23.300;2023-03-21T07:52:58;94525.44;;;22.73;29.74
43217;BME280;60511;42.686;23.300;2023-03-21T07:54:58;94420.06;;;21.99;29.20
43217;BME280;60511;42.686;23.300;2023-03-21T07:56:59;94437.34;;;22.14;29.22
43217;BME280;60511;42.686;23.300;2023-03-21T07:58:59;94529.38;;;22.76;29.05
43217;BME280;60511;42.686;23.300;2023-03-21T08:01:00;94339.66;;;21.53;28.92
43217;BME280;60511;42.686;23.300;2023-03-21T08:03:01;94538.69;;;22.78;28.61
43217;BME280;60511;42.686;23.300;2023-03-21T08:05:01;94468.00;;;22.37;28.57
43217;BME280;60511;42.686;23.300;2023-03-21T08:07:03;94528.25;;;22.77;28.36
43217;BME280;60511;42.686;23.300;2023-03-21T08:09:03;94537.88;;;22.78;27.85
43217;BME280;60511;42.686;23.300;2023-03-21T08:11:04;94454.66;;;22.29;28.23
43217;BME280;60511;42.686;23.300;2023-03-21T08:13:05;94517.22;;;22.66;28.08
43217;BME280;60511;42.686;23.300;2023-03-21T08:15:06;94504.50;;;22.66;27.47
43217;BME280;60511;42.686;23.300;2023-03-21T08:17:06;94477.88;;;22.49;27.81
43217;BME280;60511;42.686;23.300;2023-03-21T08:19:08;94540.59;;;22.78;27.53
43217;BME280;60511;42.686;23.300;2023-03-21T08:21:08;94514.47;;;22.82;27.48
43217;BME280;60511;42.686;23.300;2023-03-21T08:23:09;94491.19;;;22.58;27.50
43217;BME280;60511;42.686;23.300;2023-03-21T08:25:11;94517.97;;;22.82;27.44
43217;BME280;60511;42.686;23.300;2023-03-21T08:27:13;94407.69;;;22.14;27.39
43217;BME280;60511;42.686;23.300;2023-03-21T08:29:13;94512.56;;;22.82;27.15
43217;BME280;60511;42.686;23.300;2023-03-21T08:31:14;94478.91;;;22.60;27.44
43217;BME280;60511;42.686;23.300;2023-03-21T08:33:15;94484.91;;;22.70;27.36
43217;BME280;60511;42.686;23.300;2023-03-21T08:35:18;94501.78;;;22.82;27.15
43217;BME280;60511;42.686;23.300;2023-03-21T08:37:19;94397.97;;;22.09;27.17
43217;BME280;60511;42.686;23.300;2023-03-21T08:39:20;94418.41;;;22.26;27.10
43217;BME280;60511;42.686;23.300;2023-03-21T08:41:20;94511.75;;;22.82;26.81
43217;BME280;60511;42.686;23.300;2023-03-21T08:43:23;94483.78;;;22.71;27.08
43217;BME280;60511;42.686;23.300;2023-03-21T08:45:24;94436.22;;;22.31;27.20
43217;BME280;60511;42.686;23.300;2023-03-21T08:47:26;94457.09;;;22.50;26.93
43217;BME280;60511;42.686;23.300;2023-03-21T08:49:26;94472.56;;;22.53;27.00
43217;BME280;60511;42.686;23.300;2023-03-21T08:51:26;94448.84;;;22.42;26.97
43217;BME280;60511;42.686;23.300;2023-03-21T08:53:27;94482.63;;;22.72;26.60
43217;BME280;60511;42.686;23.300;2023-03-21T08:55:28;94475.50;;;22.63;27.15
43217;BME280;60511;42.686;23.300;2023-03-21T08:57:32;94492.72;;;22.75;26.80
43217;BME280;60511;42.686;23.300;2023-03-21T08:59:33;94501.84;;;22.86;26.62
43217;BME280;60511;42.686;23.300;2023-03-21T09:01:33;94501.50;;;22.87;26.58
43217;BME280;60511;42.686;23.300;2023-03-21T09:03:33;94440.13;;;22.49;26.80
43217;BME280;60511;42.686;23.300;2023-03-21T09:05:34;94336.09;;;21.81;26.89
43217;BME280;60511;42.686;23.300;2023-03-21T09:07:35;94414.56;;;22.27;26.75
43217;BME280;60511;42.686;23.300;2023-03-21T09:09:37;94447.97;;;22.54;26.64
43217;BME280;60511;42.686;23.300;2023-03-21T09:11:37;94465.16;;;22.65;26.60
43217;BME280;60511;42.686;23.300;2023-03-21T09:13:38;94491.47;;;22.88;26.66
43217;BME280;60511;42.686;23.300;2023-03-21T09:15:38;94493.06;;;22.89;26.78
43217;BME280;60511;42.686;23.300;2023-03-21T09:17:40;94483.03;;;22.90;26.83
43217;BME280;60511;42.686;23.300;2023-03-21T09:19:42;94498.88;;;22.91;26.66
43217;BME280;60511;42.686;23.300;2023-03-21T09:21:43;94399.44;;;22.38;26.84
43217;BME280;60511;42.686;23.300;2023-03-21T09:23:44;94475.38;;;22.92;26.53
43217;BME280;60511;42.686;23.300;2023-03-21T09:25:45;94486.94;;;22.92;26.85
43217;BME280;60511;42.686;23.300;2023-03-21T09:27:46;94283.53;;;21.71;26.65
43217;BME280;60511;42.686;23.300;2023-03-21T09:29:49;94451.97;;;22.80;26.91
43217;BME280;60511;42.686;23.300;2023-03-21T09:31:50;94386.94;;;22.30;26.77
43217;BME280;60511;42.686;23.300;2023-03-21T09:33:53;94323.19;;;22.06;26.52
43217;BME280;60511;42.686;23.300;2023-03-21T09:35:55;94475.78;;;22.94;26.66
43217;BME280;60511;42.686;23.300;2023-03-21T09:37:57;94463.06;;;22.94;26.75
43217;BME280;60511;42.686;23.300;2023-03-21T09:39:58;94383.34;;;22.42;26.74
43217;BME280;60511;42.686;23.300;2023-03-21T09:42:20;94412.44;;;22.68;27.00
43217;BME280;60511;42.686;23.300;2023-03-21T09:47:14;94441.56;;;22.98;26.82
43217;BME280;60511;42.686;23.300;2023-03-21T09:49:24;94436.16;;;22.98;26.91
43217;BME280;60511;42.686;23.300;2023-03-21T09:51:50;94463.06;;;22.94;26.90
43217;BME280;60511;42.686;23.300;2023-03-21T09:53:52;94437.03;;;22.82;26.42
43217;BME280;60511;42.686;23.300;2023-03-21T09:55:54;94468.47;;;22.94;26.30
43217;BME280;60511;42.686;23.300;2023-03-21T09:58:24;94454.63;;;22.96;26.71
43217;BME280;60511;42.686;23.300;2023-03-21T10:00:39;94447.19;;;22.89;26.68
43217;BME280;60511;42.686;23.300;2023-03-21T10:02:44;94450.44;;;22.98;26.46
43217;BME280;60511;42.686;23.300;2023-03-21T10:04:46;94418.03;;;22.79;26.64
43217;BME280;60511;42.686;23.300;2023-03-21T10:06:54;94428.50;;;23.00;26.49
43217;BME280;60511;42.686;23.300;2023-03-21T10:09:06;94400.66;;;22.76;26.68
43217;BME280;60511;42.686;23.300;2023-03-21T10:11:12;94443.56;;;23.01;26.69
43217;BME280;60511;42.686;23.300;2023-03-21T10:13:16;94433.56;;;23.01;26.43
43217;BME280;60511;42.686;23.300;2023-03-21T10:15:22;94432.44;;;23.02;26.47
43217;BME280;60511;42.686;23.300;2023-03-21T10:19:27;94415.09;;;23.03;26.45
43217;BME280;60511;42.686;23.300;2023-03-21T10:21:28;94415.09;;;23.03;27.02
43217;BME280;60511;42.686;23.300;2023-03-21T10:23:29;94351.84;;;22.65;26.89
43217;BME280;60511;42.686;23.300;2023-03-21T10:25:39;94417.88;;;23.07;26.99
43217;BME280;60511;42.686;23.300;2023-03-21T10:27:40;94365.50;;;22.73;26.92
43217;BME280;60511;42.686;23.300;2023-03-21T10:29:42;94381.78;;;22.76;26.93
43217;BME280;60511;42.686;23.300;2023-03-21T10:31:45;94402.56;;;22.95;26.96
43217;BME280;60511;42.686;23.300;2023-03-21T10:33:48;94420.59;;;23.07;26.81
43217;BME280;60511;42.686;23.300;2023-03-21T10:36:01;94426.56;;;23.00;26.95
43217;BME280;60511;42.686;23.300;2023-03-21T10:38:06;94402.72;;;22.83;27.31
43217;BME280;60511;42.686;23.300;2023-03-21T10:40:15;94391.41;;;22.77;26.79
43217;BME280;60511;42.686;23.300;2023-03-21T10:42:23;94421.38;;;23.08;26.70
43217;BME280;60511;42.686;23.300;2023-03-21T10:44:34;94418.00;;;22.95;27.09
43217;BME280;60511;42.686;23.300;2023-03-21T10:46:35;94418.59;;;22.88;26.80
43217;BME280;60511;42.686;23.300;2023-03-21T10:48:37;94355.53;;;22.57;26.67
43217;BME280;60511;42.686;23.300;2023-03-21T10:50:38;94295.78;;;22.20;26.55
43217;BME280;60511;42.686;23.300;2023-03-21T10:52:50;94439.91;;;23.09;26.38
43217;BME280;60511;42.686;23.300;2023-03-21T10:55:05;94371.66;;;22.73;26.58
43217;BME280;60511;42.686;23.300;2023-03-21T10:57:10;94336.72;;;22.61;26.81
43217;BME280;60511;42.686;23.300;2023-03-21T10:59:17;94380.56;;;22.93;26.82
43217;BME280;60511;42.686;23.300;2023-03-21T11:01:31;94402.97;;;23.13;27.16
43217;BME280;60511;42.686;23.300;2023-03-21T11:03:38;94403.41;;;23.15;26.93
43217;BME280;60511;42.686;23.300;2023-03-21T11:05:42;94417.25;;;23.14;27.25
43217;BME280;60511;42.686;23.300;2023-03-21T11:07:43;94273.84;;;22.37;27.23
43217;BME280;60511;42.686;23.300;2023-03-21T11:09:57;94325.03;;;22.73;27.19
43217;BME280;60511;42.686;23.300;2023-03-21T11:12:02;94338.16;;;22.74;26.76
43217;BME280;60511;42.686;23.300;2023-03-21T11:14:07;94384.50;;;23.15;27.08
43217;BME280;60511;42.686;23.300;2023-03-21T11:16:56;94320.97;;;22.63;26.87